Time;durP1;ratioP1;P1;durP2;ratioP2;P2;SDS_P1;SDS_P2;PMS_P1;PMS_P2;Temp;Humidity;BMP_temperature;BMP_pressure;BME280_temperature;BME280_humidity;BME280_pressure;Samples;Min_cycle;Max_cycle;Signal;HPM_P1;HPM_P2
2022/02/18 00:02:27;;;;;;;4.43;0.70;;;9.20;99.90;;;;;;5033580;28;20887;-59
2022/02/18 00:04:54;;;;;;;5.05;0.60;;;9.10;99.90;;;;;;5034405;28;21018;-59
2022/02/18 00:07:21;;;;;;;2.33;0.50;;;9.20;99.90;;;;;;5035434;28;20807;-60
2022/02/18 00:09:47;;;;;;;3.95;0.90;;;9.20;99.90;;;;;;5034463;28;20419;-60
2022/02/18 00:12:14;;;;;;;2.30;0.65;;;9.20;99.90;;;;;;5034033;28;20427;-59
2022/02/18 00:14:41;;;;;;;5.90;0.60;;;9.20;99.90;;;;;;5034176;28;20418;-59
2022/02/18 00:17:08;;;;;;;4.40;0.77;;;9.20;99.90;;;;;;5034746;28;20437;-58
2022/02/18 00:19:36;;;;;;;3.75;0.90;;;9.10;99.90;;;;;;5036098;28;20441;-58
2022/02/18 00:22:03;;;;;;;2.67;0.60;;;9.10;99.90;;;;;;5035919;28;20718;-58
2022/02/18 00:24:31;;;;;;;4.70;0.60;;;9.10;99.90;;;;;;5035792;28;20429;-58
2022/02/18 00:26:57;;;;;;;3.95;0.80;;;9.10;99.90;;;;;;5036928;28;20701;-58
2022/02/18 00:29:24;;;;;;;3.70;0.50;;;9.10;99.90;;;;;;5036691;28;20510;-58
2022/02/18 00:31:51;;;;;;;3.22;0.70;;;9.20;99.90;;;;;;5036662;28;20890;-58
2022/02/18 00:34:18;;;;;;;3.45;0.50;;;9.20;99.90;;;;;;5036587;28;20513;-58
2022/02/18 00:36:47;;;;;;;4.78;0.60;;;9.20;99.90;;;;;;5036682;28;20435;-57
2022/02/18 00:39:13;;;;;;;5.90;0.80;;;9.20;99.90;;;;;;5035157;28;20431;-57
2022/02/18 00:41:40;;;;;;;4.22;0.70;;;9.20;99.90;;;;;;5035992;28;20427;-58
2022/02/18 00:44:07;;;;;;;5.53;0.60;;;9.20;99.90;;;;;;5036159;28;20719;-58
2022/02/18 00:46:34;;;;;;;4.13;0.60;;;9.20;99.90;;;;;;5036234;28;20431;-58
2022/02/18 00:49:01;;;;;;;4.05;0.60;;;9.20;99.90;;;;;;5034930;28;20422;-58
2022/02/18 00:51:28;;;;;;;5.40;0.55;;;9.20;99.90;;;;;;5036016;28;20427;-58
2022/02/18 00:53:56;;;;;;;6.77;0.70;;;9.30;99.90;;;;;;5032628;28;20475;-58
2022/02/18 00:56:23;;;;;;;2.53;0.68;;;9.20;99.90;;;;;;5033805;28;20437;-58
2022/02/18 00:58:49;;;;;;;3.47;0.70;;;9.30;99.90;;;;;;5033570;28;20423;-57
2022/02/18 01:01:16;;;;;;;5.20;0.50;;;9.30;99.90;;;;;;5032947;28;20438;-58
2022/02/18 01:03:43;;;;;;;5.60;0.55;;;9.40;99.90;;;;;;5033281;28;20419;-58
2022/02/18 01:06:10;;;;;;;5.80;0.60;;;9.40;99.90;;;;;;5034262;28;20436;-57
2022/02/18 01:08:37;;;;;;;4.10;0.50;;;9.40;99.90;;;;;;5034693;28;20430;-58
2022/02/18 01:11:05;;;;;;;4.83;0.50;;;9.40;99.90;;;;;;5036127;28;20730;-58
2022/02/18 01:13:32;;;;;;;7.07;0.60;;;9.40;99.90;;;;;;5035585;28;20729;-58
2022/02/18 01:15:59;;;;;;;2.10;0.47;;;9.40;99.90;;;;;;5034826;28;20441;-58
2022/02/18 01:18:26;;;;;;;3.33;0.60;;;9.40;99.90;;;;;;5035512;28;20423;-57
2022/02/18 01:20:52;;;;;;;4.90;0.70;;;9.40;99.90;;;;;;5035380;28;20454;-57
2022/02/18 01:23:19;;;;;;;2.00;0.50;;;9.30;99.90;;;;;;5035665;28;20423;-58
2022/02/18 01:25:46;;;;;;;5.00;0.55;;;9.40;99.90;;;;;;5035254;28;20433;-56
2022/02/18 01:28:14;;;;;;;2.50;0.50;;;9.30;99.90;;;;;;5035788;28;20777;-58
2022/02/18 01:30:41;;;;;;;2.70;0.50;;;9.30;99.90;;;;;;5035648;28;20427;-59
2022/02/18 01:33:08;;;;;;;3.35;0.40;;;9.30;99.90;;;;;;5035371;28;20435;-58
2022/02/18 01:35:36;;;;;;;1.65;0.60;;;9.30;99.90;;;;;;5035561;28;20431;-59
2022/02/18 01:38:03;;;;;;;1.48;0.60;;;9.30;99.90;;;;;;5035549;28;20860;-58
2022/02/18 01:40:31;;;;;;;3.33;0.50;;;9.40;99.90;;;;;;5034732;28;20439;-58
2022/02/18 01:42:58;;;;;;;2.33;0.60;;;9.40;99.90;;;;;;5035119;28;20423;-59
2022/02/18 01:45:27;;;;;;;3.92;0.50;;;9.40;99.90;;;;;;5034042;28;20430;-58
2022/02/18 01:47:53;;;;;;;1.87;0.40;;;9.40;99.90;;;;;;5034594;28;20419;-59
2022/02/18 01:50:21;;;;;;;4.25;0.50;;;9.40;99.90;;;;;;5034454;28;20457;-59
2022/02/18 01:52:50;;;;;;;2.67;0.50;;;9.40;99.90;;;;;;5032803;28;20429;-59
2022/02/18 01:55:17;;;;;;;2.50;0.50;;;9.40;99.90;;;;;;5032881;28;20462;-57
2022/02/18 01:57:46;;;;;;;2.90;0.43;;;9.40;99.90;;;;;;5033034;28;20797;-57
2022/02/18 02:00:16;;;;;;;4.80;0.70;;;9.40;99.90;;;;;;5034198;28;20445;-57
2022/02/18 02:02:45;;;;;;;4.20;0.60;;;9.50;99.90;;;;;;5034524;28;20861;-57
2022/02/18 02:05:13;;;;;;;2.33;0.70;;;9.50;99.90;;;;;;5034969;28;20430;-57
2022/02/18 02:07:41;;;;;;;2.88;0.63;;;9.50;99.90;;;;;;5035134;28;20430;-57
2022/02/18 02:10:08;;;;;;;2.00;0.47;;;9.40;99.90;;;;;;5035178;28;20840;-58
2022/02/18 02:12:40;;;;;;;4.15;0.55;;;9.40;99.90;;;;;;5035237;28;20445;-58
2022/02/18 02:15:08;;;;;;;2.00;0.50;;;9.40;99.90;;;;;;5034911;28;20427;-59
2022/02/18 02:17:35;;;;;;;4.03;0.60;;;9.40;99.90;;;;;;5035140;28;20423;-58
2022/02/18 02:20:04;;;;;;;3.30;0.50;;;9.30;99.90;;;;;;5035195;28;20868;-58
2022/02/18 02:22:32;;;;;;;5.50;0.50;;;9.30;99.90;;;;;;5035492;28;20749;-58
2022/02/18 02:24:59;;;;;;;2.60;0.60;;;9.30;99.90;;;;;;5035051;28;20429;-59
2022/02/18 02:27:26;;;;;;;2.20;0.50;;;9.20;99.90;;;;;;5034621;28;20489;-59
2022/02/18 02:29:53;;;;;;;4.10;0.60;;;9.10;99.90;;;;;;5033957;28;20415;-58
2022/02/18 02:32:20;;;;;;;3.80;0.50;;;9.10;99.90;;;;;;5033856;28;20892;-58
2022/02/18 02:34:47;;;;;;;5.80;0.70;;;9.10;99.90;;;;;;5034126;28;20418;-58
2022/02/18 02:37:14;;;;;;;2.45;0.60;;;9.10;99.90;;;;;;5034492;28;20441;-58
2022/02/18 02:39:42;;;;;;;6.70;0.55;;;9.10;99.90;;;;;;5033929;28;20518;-58
2022/02/18 02:42:09;;;;;;;3.10;0.60;;;9.20;99.90;;;;;;5033873;28;20431;-58
2022/02/18 02:44:37;;;;;;;2.75;0.57;;;9.10;99.90;;;;;;5034956;28;20868;-58
2022/02/18 02:47:05;;;;;;;2.80;0.40;;;9.10;99.90;;;;;;5034703;28;20517;-58
2022/02/18 02:49:32;;;;;;;4.87;0.50;;;9.10;99.90;;;;;;5035085;28;20422;-58
2022/02/18 02:51:59;;;;;;;2.50;0.60;;;9.10;1.00;;;;;;5034969;28;20834;-58
2022/02/18 02:54:26;;;;;;;3.05;0.60;;;9.00;1.00;;;;;;5034714;28;20819;-59
2022/02/18 02:56:56;;;;;;;4.63;0.50;;;9.00;1.00;;;;;;5034542;28;20529;-59
2022/02/18 02:59:24;;;;;;;3.42;0.40;;;9.00;1.00;;;;;;5034774;28;20715;-58
2022/02/18 03:01:51;;;;;;;2.17;0.60;;;9.10;1.00;;;;;;5034139;28;20439;-59
2022/02/18 03:04:19;;;;;;;2.97;0.50;;;9.10;1.00;;;;;;5034307;28;20714;-58
2022/02/18 03:06:46;;;;;;;2.63;0.50;;;9.10;1.00;;;;;;5034232;28;20435;-58
2022/02/18 03:09:13;;;;;;;3.53;0.40;;;9.10;1.00;;;;;;5034161;28;20431;-59
2022/02/18 03:11:40;;;;;;;2.40;0.47;;;9.10;1.00;;;;;;5034212;28;20427;-58
2022/02/18 03:14:09;;;;;;;2.90;0.50;;;9.00;1.00;;;;;;5034608;28;20525;-58
2022/02/18 03:16:36;;;;;;;4.15;0.68;;;9.00;1.00;;;;;;5034379;28;20427;-58
2022/02/18 03:19:02;;;;;;;2.42;0.60;;;9.00;1.00;;;;;;5036840;28;20423;-57
2022/02/18 03:21:29;;;;;;;3.30;0.50;;;8.90;1.00;;;;;;5036579;28;20446;-57
2022/02/18 03:23:56;;;;;;;8.68;0.70;;;8.80;1.00;;;;;;5036366;28;20715;-58
2022/02/18 03:26:23;;;;;;;2.80;0.60;;;8.80;1.00;;;;;;5036292;28;20521;-58
2022/02/18 03:28:50;;;;;;;2.67;0.40;;;8.80;1.00;;;;;;5036091;28;20839;-57
2022/02/18 03:31:18;;;;;;;3.05;0.50;;;8.90;1.00;;;;;;5036162;28;20497;-57
2022/02/18 03:33:45;;;;;;;3.65;0.50;;;8.90;1.00;;;;;;5036114;28;20415;-58
2022/02/18 03:36:12;;;;;;;4.03;0.60;;;8.90;1.00;;;;;;5036029;28;20562;-59
2022/02/18 03:38:39;;;;;;;2.50;0.50;;;8.90;1.00;;;;;;5036754;28;20729;-58
2022/02/18 03:41:07;;;;;;;5.30;0.50;;;8.80;1.00;;;;;;5036522;28;20492;-58
2022/02/18 03:43:34;;;;;;;2.47;0.50;;;8.80;1.00;;;;;;5037644;28;20431;-57
2022/02/18 03:46:01;;;;;;;2.95;0.40;;;8.80;1.00;;;;;;5037374;28;20882;-58
2022/02/18 03:48:30;;;;;;;2.92;0.50;;;8.80;1.00;;;;;;5036706;28;20449;-59
2022/02/18 03:50:57;;;;;;;4.10;0.50;;;8.80;1.00;;;;;;5036779;28;20534;-57
2022/02/18 03:53:23;;;;;;;2.03;0.60;;;8.90;1.00;;;;;;5036913;28;20700;-58
2022/02/18 03:55:50;;;;;;;4.20;0.47;;;8.90;1.00;;;;;;5036964;28;20438;-58
2022/02/18 03:58:17;;;;;;;2.15;0.40;;;8.80;17.50;;;;;;5036791;28;20427;-58
2022/02/18 04:00:44;;;;;;;4.30;0.60;;;8.80;99.90;;;;;;5037049;28;20439;-58
2022/02/18 04:03:11;;;;;;;1.75;0.40;;;8.80;99.90;;;;;;5037560;28;20431;-58
2022/02/18 04:05:39;;;;;;;2.00;0.40;;;8.70;99.90;;;;;;5037483;28;20437;-58
2022/02/18 04:08:06;;;;;;;4.03;0.50;;;8.80;1.00;;;;;;5037093;28;20510;-58
2022/02/18 04:10:33;;;;;;;2.10;0.40;;;8.80;99.90;;;;;;5038178;28;20529;-58
2022/02/18 04:13:00;;;;;;;1.77;0.50;;;8.80;99.90;;;;;;5037578;28;20411;-59
2022/02/18 04:15:27;;;;;;;1.70;0.50;;;8.80;99.90;;;;;;5037386;28;20709;-58
2022/02/18 04:17:53;;;;;;;2.63;0.55;;;8.80;99.90;;;;;;5036745;28;20418;-59
2022/02/18 04:20:20;;;;;;;1.00;0.50;;;8.80;1.00;;;;;;5035672;28;20842;-59
2022/02/18 04:22:49;;;;;;;2.00;0.40;;;8.80;1.00;;;;;;5054322;28;20431;-58
2022/02/18 04:25:16;;;;;;;3.00;0.50;;;8.70;1.00;;;;;;5055579;28;20428;-59
2022/02/18 04:27:43;;;;;;;2.00;0.40;;;8.80;1.00;;;;;;5055153;28;20417;-60
2022/02/18 04:30:11;;;;;;;1.42;0.40;;;8.80;1.00;;;;;;5054511;28;20576;-58
2022/02/18 04:32:37;;;;;;;2.00;0.40;;;8.80;1.00;;;;;;5053425;28;20421;-59
2022/02/18 04:35:05;;;;;;;2.80;0.60;;;8.80;1.00;;;;;;5053697;28;20421;-59
2022/02/18 04:37:32;;;;;;;1.85;0.40;;;8.70;1.00;;;;;;5055299;28;20432;-58
2022/02/18 04:40:00;;;;;;;1.90;0.40;;;8.70;99.90;;;;;;5038722;28;20433;-58
2022/02/18 04:42:27;;;;;;;4.68;0.50;;;8.70;99.90;;;;;;5036104;28;20517;-59
2022/02/18 04:44:54;;;;;;;4.13;0.60;;;8.70;99.90;;;;;;5036290;28;20427;-58
2022/02/18 04:47:21;;;;;;;3.30;0.40;;;8.70;99.90;;;;;;5036395;28;20965;-58
2022/02/18 04:49:47;;;;;;;3.30;0.60;;;8.70;99.90;;;;;;5045749;28;20430;-58
2022/02/18 04:52:14;;;;;;;2.10;0.60;;;8.80;1.00;;;;;;5056081;28;20515;-58
2022/02/18 04:54:41;;;;;;;2.35;0.80;;;8.80;1.00;;;;;;5056420;28;20421;-58
2022/02/18 04:57:10;;;;;;;1.88;0.40;;;8.80;1.00;;;;;;5055819;28;20436;-57
2022/02/18 04:59:36;;;;;;;4.07;0.50;;;8.80;1.00;;;;;;5036046;28;20582;-58
2022/02/18 05:02:04;;;;;;;5.63;0.50;;;8.80;1.00;;;;;;5036392;28;20435;-58
2022/02/18 05:04:31;;;;;;;3.22;0.40;;;8.80;1.00;;;;;;5036043;28;20433;-58
2022/02/18 05:06:59;;;;;;;3.00;0.50;;;8.70;12.90;;;;;;5036143;28;20517;-59
2022/02/18 05:09:26;;;;;;;4.03;0.50;;;8.70;1.00;;;;;;5036781;28;20430;-59
2022/02/18 05:11:53;;;;;;;3.53;0.60;;;8.70;1.00;;;;;;5035279;28;20716;-58
2022/02/18 05:14:21;;;;;;;3.78;0.50;;;8.70;1.00;;;;;;5035512;28;20435;-59
2022/02/18 05:16:48;;;;;;;4.03;0.50;;;8.70;1.00;;;;;;5040190;28;20428;-58
2022/02/18 05:19:15;;;;;;;4.20;0.50;;;8.70;85.80;;;;;;5054520;28;20414;-59
2022/02/18 05:21:42;;;;;;;5.50;0.50;;;8.70;1.00;;;;;;5054035;28;20883;-59
2022/02/18 05:24:09;;;;;;;1.98;0.40;;;8.80;1.00;;;;;;5054582;28;20417;-59
2022/02/18 05:26:37;;;;;;;6.00;0.50;;;8.70;99.90;;;;;;5053741;28;20597;-58
2022/02/18 05:29:05;;;;;;;1.40;0.40;;;8.70;99.90;;;;;;5051266;28;20447;-59
2022/02/18 05:31:33;;;;;;;5.95;0.50;;;8.80;1.00;;;;;;5053115;28;20853;-59
2022/02/18 05:34:00;;;;;;;2.08;0.60;;;8.80;1.00;;;;;;5053408;28;20512;-59
2022/02/18 05:36:27;;;;;;;5.47;0.50;;;8.80;1.00;;;;;;5044688;28;20441;-59
2022/02/18 05:38:54;;;;;;;3.30;0.60;;;8.80;99.90;;;;;;5049770;28;20568;-59
2022/02/18 05:41:22;;;;;;;3.53;0.50;;;8.80;99.90;;;;;;5053569;28;20460;-59
2022/02/18 05:43:49;;;;;;;3.40;0.55;;;8.80;99.90;;;;;;5055035;28;20424;-59
2022/02/18 05:46:16;;;;;;;2.13;0.60;;;8.90;1.00;;;;;;5050859;28;20497;-59
2022/02/18 05:48:44;;;;;;;4.10;0.50;;;8.90;99.90;;;;;;5050601;28;20444;-59
2022/02/18 05:51:11;;;;;;;1.80;0.50;;;8.90;99.90;;;;;;5055081;28;20825;-58
2022/02/18 05:53:38;;;;;;;1.75;0.50;;;8.80;99.90;;;;;;5054679;28;20432;-59
2022/02/18 05:56:05;;;;;;;2.97;0.50;;;8.90;99.90;;;;;;5039362;28;20435;-58
2022/02/18 05:58:32;;;;;;;3.17;0.60;;;8.80;99.90;;;;;;5050387;28;20425;-58
2022/02/18 06:00:59;;;;;;;2.25;0.40;;;8.80;99.90;;;;;;5052165;28;20941;-58
2022/02/18 06:03:26;;;;;;;3.00;0.60;;;8.90;1.00;;;;;;5041861;28;20435;-58
2022/02/18 06:05:54;;;;;;;2.90;0.50;;;8.90;1.00;;;;;;5053472;28;20524;-58
2022/02/18 06:08:21;;;;;;;2.60;0.60;;;8.80;99.90;;;;;;5053697;28;20425;-58
2022/02/18 06:10:47;;;;;;;2.65;0.52;;;8.80;1.00;;;;;;5053479;28;20837;-57
2022/02/18 06:13:14;;;;;;;1.80;0.50;;;8.90;1.00;;;;;;5042623;28;20441;-58
2022/02/18 06:15:41;;;;;;;2.97;0.40;;;8.80;1.00;;;;;;5036917;28;20527;-57
2022/02/18 06:18:08;;;;;;;1.55;0.40;;;8.80;1.00;;;;;;5052447;28;20421;-58
2022/02/18 06:20:35;;;;;;;3.33;0.50;;;8.90;99.90;;;;;;5033116;28;20431;-58
2022/02/18 06:23:03;;;;;;;2.53;0.40;;;9.00;1.00;;;;;;5034027;28;20734;-58
2022/02/18 06:25:30;;;;;;;2.15;0.45;;;9.00;99.90;;;;;;5032559;28;20708;-58
2022/02/18 06:28:07;;;;;;;5.60;0.50;;;8.90;99.90;;;;;;5031954;28;20438;-58
2022/02/18 06:30:37;;;;;;;1.60;0.40;;;8.90;1.00;;;;;;5031189;28;20850;-58
2022/02/18 06:33:05;;;;;;;3.53;0.80;;;8.90;1.00;;;;;;5032051;28;20591;-57
2022/02/18 06:35:32;;;;;;;1.30;0.40;;;8.90;1.00;;;;;;5032751;28;20427;-58
2022/02/18 06:37:59;;;;;;;2.90;0.50;;;8.90;1.00;;;;;;5035977;28;20421;-59
2022/02/18 06:40:27;;;;;;;2.10;0.50;;;9.00;1.00;;;;;;5051413;28;20437;-58
2022/02/18 06:42:54;;;;;;;3.97;0.50;;;9.00;99.90;;;;;;5050960;28;20441;-58
2022/02/18 06:45:21;;;;;;;2.00;0.47;;;9.00;99.90;;;;;;5049617;28;20436;-57
2022/02/18 06:47:48;;;;;;;2.40;0.50;;;9.10;99.90;;;;;;5050162;28;20429;-56
2022/02/18 06:50:17;;;;;;;2.30;0.60;;;9.10;99.90;;;;;;5049842;28;20433;-58
2022/02/18 06:52:44;;;;;;;3.80;0.60;;;9.00;1.00;;;;;;5052215;28;20418;-57
2022/02/18 06:55:11;;;;;;;1.85;0.50;;;9.10;1.00;;;;;;5053516;28;20871;-57
2022/02/18 06:57:41;;;;;;;1.33;0.50;;;9.10;1.00;;;;;;5053852;28;20445;-57
2022/02/18 07:00:10;;;;;;;1.88;0.40;;;9.10;1.00;;;;;;5056171;28;20440;-58
2022/02/18 07:02:38;;;;;;;2.13;0.50;;;9.10;1.00;;;;;;5055883;28;20432;-57
2022/02/18 07:05:06;;;;;;;2.35;0.52;;;9.30;1.00;;;;;;5057327;28;20436;-57
2022/02/18 07:07:33;;;;;;;21.17;11.15;;;9.30;99.90;;;;;;5056289;28;20428;-58
2022/02/18 07:09:59;;;;;;;3.60;0.60;;;9.40;99.90;;;;;;5050668;28;20421;-58
2022/02/18 07:12:27;;;;;;;4.60;0.50;;;9.40;95.10;;;;;;5049590;28;20844;-58
2022/02/18 07:14:56;;;;;;;2.00;0.50;;;9.40;99.90;;;;;;5042038;28;20427;-58
2022/02/18 07:17:24;;;;;;;1.80;0.50;;;9.50;99.90;;;;;;5055716;28;20425;-57
2022/02/18 07:19:51;;;;;;;2.35;0.50;;;9.50;99.90;;;;;;5049439;28;20427;-59
2022/02/18 07:22:18;;;;;;;2.20;0.70;;;9.60;99.90;;;;;;5040210;28;20892;-58
2022/02/18 07:24:48;;;;;;;1.47;0.40;;;9.70;99.90;;;;;;5045163;28;20501;-56
2022/02/18 07:27:15;;;;;;;1.92;0.50;;;9.70;1.00;;;;;;5055698;28;20421;-58
2022/02/18 07:29:42;;;;;;;3.60;0.40;;;9.70;88.30;;;;;;5054868;28;20421;-57
2022/02/18 07:32:11;;;;;;;3.50;0.50;;;9.70;1.00;;;;;;5055035;28;20429;-57
2022/02/18 07:34:38;;;;;;;3.03;0.50;;;9.80;57.30;;;;;;5054948;28;20432;-58
2022/02/18 07:37:05;;;;;;;2.30;0.50;;;9.80;16.80;;;;;;5054987;28;20476;-58
2022/02/18 07:39:33;;;;;;;4.25;0.50;;;9.80;99.90;;;;;;5054051;28;20748;-57
2022/02/18 07:41:59;;;;;;;1.42;0.43;;;9.70;99.90;;;;;;5053906;28;20433;-57
2022/02/18 07:44:26;;;;;;;3.42;0.40;;;9.70;99.90;;;;;;5050714;28;20417;-58
2022/02/18 07:46:53;;;;;;;2.60;0.50;;;9.70;1.00;;;;;;5051144;28;20447;-57
2022/02/18 07:49:21;;;;;;;2.20;0.40;;;9.80;1.00;;;;;;5051610;28;20422;-58
2022/02/18 07:51:48;;;;;;;1.27;0.50;;;9.80;1.00;;;;;;5044220;28;21011;-56
2022/02/18 07:54:15;;;;;;;1.30;0.50;;;9.80;2.20;;;;;;5049228;28;20426;-58
2022/02/18 07:56:43;;;;;;;3.03;0.50;;;9.80;99.90;;;;;;5051775;28;20432;-58
2022/02/18 07:59:10;;;;;;;1.30;0.40;;;9.90;91.00;;;;;;5053215;28;20784;-58
2022/02/18 08:01:36;;;;;;;2.20;0.40;;;10.00;99.90;;;;;;5052825;28;20443;-56
2022/02/18 08:04:04;;;;;;;1.70;0.40;;;10.10;99.90;;;;;;5038119;28;20435;-57
2022/02/18 08:06:32;;;;;;;2.10;0.40;;;10.10;1.00;;;;;;5054481;28;20436;-58
2022/02/18 08:08:59;;;;;;;1.45;0.40;;;10.20;16.30;;;;;;5040620;28;20811;-59
2022/02/18 08:11:26;;;;;;;2.13;0.30;;;10.20;19.00;;;;;;5048416;28;20433;-58
2022/02/18 08:13:53;;;;;;;1.88;0.50;;;10.30;99.90;;;;;;5054713;28;20607;-59
2022/02/18 08:16:21;;;;;;;1.98;0.43;;;10.40;99.90;;;;;;5055142;28;20476;-58
2022/02/18 08:18:49;;;;;;;1.20;0.50;;;10.50;99.90;;;;;;5042707;28;20431;-57
2022/02/18 08:21:17;;;;;;;1.88;0.30;;;10.50;1.00;;;;;;5043188;28;20805;-58
2022/02/18 08:23:46;;;;;;;0.70;0.20;;;10.60;1.00;;;;;;5054297;28;20510;-58
2022/02/18 08:26:13;;;;;;;1.52;0.30;;;10.70;1.00;;;;;;5046419;28;20517;-58
2022/02/18 08:28:40;;;;;;;1.47;0.30;;;10.90;99.90;;;;;;5033929;28;20427;-58
2022/02/18 08:31:07;;;;;;;1.20;0.30;;;10.90;99.90;;;;;;5046286;28;20795;-58
2022/02/18 08:33:35;;;;;;;2.90;0.40;;;11.00;99.90;;;;;;5049692;28;20436;-57
2022/02/18 08:36:09;;;;;;;1.23;0.38;;;11.00;1.00;;;;;;5050807;28;20532;-59
2022/02/18 08:38:36;;;;;;;0.60;0.20;;;11.10;1.00;;;;;;5052006;28;20426;-59
2022/02/18 08:41:05;;;;;;;1.10;0.50;;;11.10;1.00;;;;;;5039419;28;20441;-59
2022/02/18 08:43:32;;;;;;;2.50;0.30;;;11.20;1.00;;;;;;5046459;28;20433;-59
2022/02/18 08:45:59;;;;;;;0.80;0.30;;;11.30;1.00;;;;;;5052755;28;20433;-57
2022/02/18 08:48:26;;;;;;;1.40;0.30;;;11.30;1.00;;;;;;5048247;28;20429;-59
2022/02/18 08:50:53;;;;;;;1.10;0.20;;;11.40;1.00;;;;;;5051185;28;20451;-58
2022/02/18 08:53:20;;;;;;;1.15;0.30;;;11.60;1.00;;;;;;5055363;28;20432;-59
2022/02/18 08:55:47;;;;;;;0.80;0.20;;;11.60;1.00;;;;;;5054284;28;20931;-58
2022/02/18 08:58:15;;;;;;;1.20;0.30;;;11.70;99.90;;;;;;5054092;28;20431;-60
2022/02/18 09:00:42;;;;;;;2.17;0.30;;;11.70;99.90;;;;;;5053322;28;20423;-59
2022/02/18 09:03:10;;;;;;;2.40;1.23;;;11.80;99.90;;;;;;5052854;28;20437;-56
2022/02/18 09:05:37;;;;;;;2.10;0.70;;;11.80;1.00;;;;;;5052729;28;20434;-58
2022/02/18 09:08:04;;;;;;;0.60;0.30;;;11.90;1.00;;;;;;5053068;28;20422;-59
2022/02/18 09:10:41;;;;;;;1.10;0.20;;;12.00;1.00;;;;;;5042951;28;20508;-58
2022/02/18 09:13:09;;;;;;;0.68;0.25;;;12.10;96.80;;;;;;5052001;28;20425;-58
2022/02/18 09:15:39;;;;;;;0.90;0.30;;;12.20;1.00;;;;;;5041299;28;20431;-59
2022/02/18 09:18:06;;;;;;;0.90;0.30;;;12.30;1.00;;;;;;5045737;28;20421;-58
2022/02/18 09:20:37;;;;;;;0.80;0.30;;;12.30;1.00;;;;;;5053018;28;20453;-58
2022/02/18 09:23:05;;;;;;;0.60;0.10;;;12.40;1.00;;;;;;5053101;28;20733;-58
2022/02/18 09:25:33;;;;;;;0.98;0.50;;;12.40;1.00;;;;;;5053486;28;20444;-58
2022/02/18 09:28:05;;;;;;;1.25;0.20;;;12.50;1.00;;;;;;5053897;28;20425;-58
2022/02/18 09:30:34;;;;;;;0.70;0.20;;;12.60;1.00;;;;;;5053976;28;20429;-61
2022/02/18 09:33:02;;;;;;;2.15;1.95;;;12.70;99.90;;;;;;5053210;28;20511;-58
2022/02/18 09:35:29;;;;;;;0.60;0.30;;;12.80;99.90;;;;;;5053595;28;20430;-58
2022/02/18 09:37:56;;;;;;;0.50;0.25;;;13.00;1.00;;;;;;5053223;28;20516;-58
2022/02/18 09:40:24;;;;;;;1.70;0.30;;;13.10;1.00;;;;;;5053316;28;20514;-58
2022/02/18 09:42:54;;;;;;;0.47;0.20;;;13.20;1.00;;;;;;5054132;28;20436;-61
2022/02/18 09:45:23;;;;;;;0.70;0.30;;;13.20;99.90;;;;;;5052944;28;20439;-58
2022/02/18 09:47:55;;;;;;;0.40;0.20;;;13.30;99.90;;;;;;5052905;28;20439;-58
2022/02/18 09:50:24;;;;;;;0.93;0.20;;;13.30;99.90;;;;;;5052965;28;20734;-58
2022/02/18 09:52:51;;;;;;;1.88;0.50;;;13.50;99.90;;;;;;5052399;28;20514;-60
2022/02/18 09:55:18;;;;;;;1.08;0.20;;;13.60;1.00;;;;;;5052574;28;20865;-58
2022/02/18 09:57:49;;;;;;;0.60;0.20;;;13.60;1.70;;;;;;5053039;28;20429;-58
2022/02/18 10:00:16;;;;;;;0.57;0.20;;;13.70;1.00;;;;;;5054031;28;20912;-58
2022/02/18 10:02:43;;;;;;;0.40;0.20;;;13.70;1.00;;;;;;5053682;28;20879;-58
2022/02/18 10:05:10;;;;;;;0.70;0.20;;;13.80;1.00;;;;;;5053179;28;20903;-59
2022/02/18 10:08:06;;;;;;;0.40;0.20;;;13.90;1.00;;;;;;5053181;28;20421;-58
2022/02/18 10:10:34;;;;;;;0.57;0.20;;;14.00;1.00;;;;;;5052565;28;21012;-59
2022/02/18 10:13:01;;;;;;;0.47;0.20;;;14.10;99.90;;;;;;5052620;28;20421;-62
2022/02/18 10:15:28;;;;;;;0.50;0.20;;;14.20;99.90;;;;;;5052776;28;20481;-58
2022/02/18 10:18:00;;;;;;;0.50;0.30;;;14.30;99.90;;;;;;5053963;28;20424;-58
2022/02/18 10:20:29;;;;;;;1.10;0.30;;;14.30;99.90;;;;;;5050522;28;20444;-58
2022/02/18 10:22:58;;;;;;;4.43;2.67;;;14.40;99.90;;;;;;5050928;28;20429;-59
2022/02/18 10:25:29;;;;;;;0.60;0.30;;;14.50;99.90;;;;;;5045237;28;20906;-58
2022/02/18 10:27:57;;;;;;;0.90;0.30;;;14.60;86.00;;;;;;5048193;28;20849;-60
2022/02/18 10:30:26;;;;;;;0.75;0.20;;;14.70;1.00;;;;;;5044669;28;20429;-58
2022/02/18 10:32:54;;;;;;;0.75;0.20;;;14.80;1.00;;;;;;5051458;28;20436;-59
2022/02/18 10:35:31;;;;;;;0.70;0.30;;;14.90;1.00;;;;;;5038581;28;20442;-58
2022/02/18 10:37:59;;;;;;;0.60;0.20;;;15.10;1.00;;;;;;5045855;28;20550;-58
2022/02/18 10:40:28;;;;;;;1.00;0.30;;;15.20;1.00;;;;;;5053201;28;20461;-58
2022/02/18 10:42:56;;;;;;;1.60;0.90;;;15.20;1.00;;;;;;5050332;28;20963;-59
2022/02/18 10:45:26;;;;;;;5.97;3.30;;;15.20;1.00;;;;;;5046263;28;20502;-59
2022/02/18 10:48:07;;;;;;;0.70;0.30;;;15.20;1.00;;;;;;5037011;28;20425;-59
2022/02/18 10:50:34;;;;;;;0.80;0.40;;;15.30;1.00;;;;;;5046406;28;20510;-58
2022/02/18 10:53:12;;;;;;;0.50;0.30;;;15.50;1.00;;;;;;5056529;28;20943;-59
2022/02/18 10:55:55;;;;;;;1.40;0.30;;;15.50;1.00;;;;;;5057911;28;20992;-60
2022/02/18 10:58:23;;;;;;;0.90;0.20;;;15.70;1.00;;;;;;5045785;28;20530;-61
2022/02/18 11:01:06;;;;;;;1.70;0.30;;;15.90;99.90;;;;;;5045760;28;20425;-60
2022/02/18 11:03:33;;;;;;;0.63;0.20;;;16.20;99.90;;;;;;5047694;28;20459;-60
2022/02/18 11:06:17;;;;;;;2.50;0.20;;;16.50;99.90;;;;;;5052002;28;20429;-60
2022/02/18 11:08:53;;;;;;;0.80;0.20;;;16.50;99.90;;;;;;5044316;28;21187;-60
2022/02/18 11:11:22;;;;;;;0.73;0.20;;;16.80;99.90;;;;;;5048543;28;20732;-60
2022/02/18 11:13:50;;;;;;;0.90;0.50;;;16.80;99.90;;;;;;5034239;28;20513;-60
2022/02/18 11:16:19;;;;;;;3.85;1.50;;;17.00;99.90;;;;;;5046716;28;20429;-60
2022/02/18 11:18:46;;;;;;;0.80;0.40;;;17.10;99.90;;;;;;5044793;28;20425;-60
2022/02/18 11:21:15;;;;;;;0.80;0.40;;;17.40;87.10;;;;;;5042669;28;20430;-59
2022/02/18 11:23:43;;;;;;;1.80;0.50;;;17.50;38.00;;;;;;5033180;28;20426;-60
2022/02/18 11:26:13;;;;;;;1.48;0.38;;;17.40;21.80;;;;;;5047877;28;20874;-60
2022/02/18 11:28:42;;;;;;;0.52;0.20;;;17.20;8.70;;;;;;5050458;28;20463;-60
2022/02/18 11:31:16;;;;;;;0.50;0.20;;;17.00;2.00;;;;;;5046658;28;20948;-61
2022/02/18 11:34:27;;;;;;;1.30;0.50;;;16.60;1.00;;;;;;5047250;28;20452;-62
2022/02/18 11:37:37;;;;;;;0.60;0.20;;;16.70;7.40;;;;;;5029296;28;20437;-61
2022/02/18 11:40:37;;;;;;;0.60;0.20;;;16.50;1.00;;;;;;5035041;28;20741;-61
2022/02/18 11:43:27;;;;;;;1.58;0.20;;;16.30;1.00;;;;;;5034559;28;21041;-60
2022/02/18 11:45:58;;;;;;;0.40;0.20;;;16.60;1.00;;;;;;5035651;28;20435;-60
2022/02/18 11:48:39;;;;;;;4.20;0.90;;;16.70;1.00;;;;;;5042440;28;20777;-60
2022/02/18 11:51:07;;;;;;;1.48;0.13;;;16.80;1.00;;;;;;5041035;28;20435;-59
2022/02/18 11:53:45;;;;;;;0.68;0.20;;;16.90;1.00;;;;;;5052664;28;20821;-53
2022/02/18 11:56:14;;;;;;;1.10;0.50;;;17.00;1.00;;;;;;5042293;28;20441;-53
2022/02/18 11:59:00;;;;;;;1.00;0.20;;;17.00;1.00;;;;;;5048002;28;20902;-55
2022/02/18 12:01:57;;;;;;;0.57;0.30;;;16.80;1.00;;;;;;5051386;28;20441;-53
2022/02/18 12:04:25;;;;;;;0.50;0.20;;;16.90;1.00;;;;;;5038957;28;20444;-51
2022/02/18 12:07:28;;;;;;;0.77;0.20;;;17.00;1.00;;;;;;5057376;28;20436;-52
2022/02/18 12:09:59;;;;;;;0.85;0.30;;;17.00;1.00;;;;;;5052070;28;20479;-50
2022/02/18 12:12:29;;;;;;;0.40;0.20;;;16.80;1.00;;;;;;5049980;28;20432;-52
2022/02/18 12:14:57;;;;;;;1.30;0.40;;;16.80;1.00;;;;;;5046292;28;20517;-53
2022/02/18 12:17:25;;;;;;;0.50;0.20;;;16.90;1.00;;;;;;5045150;28;20427;-52
2022/02/18 12:19:54;;;;;;;2.40;0.20;;;17.00;1.00;;;;;;5051817;28;20431;-53
2022/02/18 12:22:35;;;;;;;0.77;0.20;;;17.00;1.00;;;;;;5053267;28;20421;-49
2022/02/18 12:25:06;;;;;;;0.50;0.30;;;16.90;1.00;;;;;;5049358;28;20421;-50
2022/02/18 12:27:37;;;;;;;0.52;0.20;;;16.90;1.00;;;;;;5054797;28;20421;-51
2022/02/18 12:30:41;;;;;;;1.40;0.20;;;16.90;1.00;;;;;;5051776;28;21062;-54
2022/02/18 12:33:10;;;;;;;0.40;0.20;;;16.90;1.00;;;;;;5046734;28;20481;-51
2022/02/18 12:35:39;;;;;;;1.67;0.20;;;16.80;1.00;;;;;;5045211;28;20429;-54
2022/02/18 12:38:08;;;;;;;0.40;0.20;;;16.80;1.00;;;;;;5053322;28;20435;-54
2022/02/18 12:40:37;;;;;;;0.40;0.20;;;16.80;1.00;;;;;;5043952;28;20429;-51
2022/02/18 12:43:06;;;;;;;0.50;0.20;;;16.90;1.00;;;;;;5048999;28;20534;-54
2022/02/18 12:45:49;;;;;;;1.00;0.20;;;17.00;1.00;;;;;;5044068;28;20612;-53
2022/02/18 12:48:16;;;;;;;1.38;0.40;;;16.70;1.00;;;;;;5048454;28;20422;-51
2022/02/18 12:50:46;;;;;;;0.60;0.30;;;16.60;1.00;;;;;;5050772;28;20503;-52
2022/02/18 12:53:18;;;;;;;1.90;0.32;;;16.70;1.00;;;;;;5052504;28;20425;-51
2022/02/18 12:55:47;;;;;;;0.50;0.20;;;16.70;1.00;;;;;;5051582;28;20721;-52
2022/02/18 12:58:15;;;;;;;0.80;0.40;;;16.60;1.00;;;;;;5052094;28;20425;-50
2022/02/18 13:00:42;;;;;;;1.60;0.30;;;16.50;1.00;;;;;;5053286;28;20433;-52
2022/02/18 13:03:12;;;;;;;1.07;0.30;;;16.50;1.00;;;;;;5052248;28;20706;-52
2022/02/18 13:05:40;;;;;;;0.40;0.20;;;16.50;1.00;;;;;;5049379;28;20440;-54
2022/02/18 13:08:19;;;;;;;0.70;0.20;;;16.50;1.00;;;;;;5053079;28;20768;-54